Time;durP1;ratioP1;P1;durP2;ratioP2;P2;SDS_P1;SDS_P2;PMS_P1;PMS_P2;Temp;Humidity;BMP_temperature;BMP_pressure;BME280_temperature;BME280_humidity;BME280_pressure;Samples;Min_cycle;Max_cycle;Signal;HPM_P1;HPM_P2
2021/01/03 00:00:56;;;;;;;5.85;3.70;;;4.20;99.90;;;;;;4987306;28;20584;-75
2021/01/03 00:03:21;;;;;;;5.68;3.80;;;4.20;99.90;;;;;;4988077;28;20022;-75
2021/01/03 00:05:47;;;;;;;6.75;3.95;;;4.20;99.90;;;;;;4986016;28;20271;-74
2021/01/03 00:08:12;;;;;;;6.15;4.03;;;4.20;99.90;;;;;;4985709;28;20019;-75
2021/01/03 00:10:38;;;;;;;8.13;4.40;;;4.20;99.90;;;;;;4987758;28;20018;-75
2021/01/03 00:13:04;;;;;;;6.05;3.95;;;4.20;99.90;;;;;;4988920;28;20030;-75
2021/01/03 00:15:29;;;;;;;8.38;4.13;;;4.20;99.90;;;;;;4986473;28;20080;-75
2021/01/03 00:17:55;;;;;;;8.07;3.78;;;4.20;99.90;;;;;;4989346;28;20022;-75
2021/01/03 00:20:25;;;;;;;6.57;4.15;;;4.20;99.90;;;;;;4987267;28;20049;-75
2021/01/03 00:22:51;;;;;;;6.35;4.28;;;4.20;99.90;;;;;;4987711;28;20022;-76
2021/01/03 00:25:18;;;;;;;8.70;4.38;;;4.20;99.90;;;;;;4987502;28;20034;-76
2021/01/03 00:27:44;;;;;;;7.13;4.47;;;4.20;99.90;;;;;;4987246;28;20049;-75
2021/01/03 00:30:13;;;;;;;7.90;4.43;;;4.20;99.90;;;;;;4988118;28;20057;-76
2021/01/03 00:32:39;;;;;;;9.85;4.22;;;4.20;99.90;;;;;;4987647;28;20072;-75
2021/01/03 00:35:07;;;;;;;8.00;4.45;;;4.20;99.90;;;;;;4988364;28;20084;-75
2021/01/03 00:37:33;;;;;;;7.78;4.55;;;4.20;99.90;;;;;;4987484;28;20507;-75
2021/01/03 00:39:58;;;;;;;7.38;4.40;;;4.20;99.90;;;;;;4989209;28;20368;-75
2021/01/03 00:42:24;;;;;;;8.75;4.60;;;4.20;99.90;;;;;;4988368;28;20061;-75
2021/01/03 00:44:49;;;;;;;6.90;4.88;;;4.10;99.90;;;;;;4986948;28;20026;-75
2021/01/03 00:47:15;;;;;;;7.97;4.47;;;4.10;99.90;;;;;;4988795;28;20018;-75
2021/01/03 00:49:41;;;;;;;7.93;4.60;;;4.10;99.90;;;;;;4984545;28;20396;-74
2021/01/03 00:52:06;;;;;;;9.32;5.05;;;4.10;99.90;;;;;;4980113;28;20476;-75
2021/01/03 00:54:31;;;;;;;9.73;5.25;;;4.00;99.90;;;;;;4987043;28;20121;-74
2021/01/03 00:56:57;;;;;;;7.45;4.95;;;4.00;99.90;;;;;;4987744;28;20014;-75
2021/01/03 00:59:22;;;;;;;10.80;5.78;;;4.00;99.90;;;;;;4988809;28;20026;-75
2021/01/03 01:01:48;;;;;;;14.35;5.50;;;4.00;99.90;;;;;;4988967;28;20503;-75
2021/01/03 01:04:13;;;;;;;11.55;5.30;;;4.00;99.90;;;;;;4989124;28;20023;-75
2021/01/03 01:06:39;;;;;;;10.10;5.68;;;4.00;99.90;;;;;;4987774;28;20396;-75
2021/01/03 01:09:05;;;;;;;7.78;5.43;;;4.00;99.90;;;;;;4988691;28;20030;-75
2021/01/03 01:11:31;;;;;;;10.20;5.07;;;4.00;99.90;;;;;;4987213;28;20044;-75
2021/01/03 01:13:56;;;;;;;10.32;5.63;;;4.00;99.90;;;;;;4986895;28;20026;-75
2021/01/03 01:16:22;;;;;;;10.50;5.88;;;4.00;99.90;;;;;;4988156;28;20387;-75
2021/01/03 01:18:48;;;;;;;10.07;5.97;;;4.00;99.90;;;;;;4983604;28;20035;-75
2021/01/03 01:21:13;;;;;;;12.18;6.25;;;4.00;99.90;;;;;;4986716;28;20026;-75
2021/01/03 01:23:39;;;;;;;11.35;6.10;;;3.90;99.90;;;;;;4987169;28;20019;-75
2021/01/03 01:26:04;;;;;;;13.43;7.22;;;3.90;99.90;;;;;;4986646;28;20026;-75
2021/01/03 01:28:30;;;;;;;12.20;7.00;;;4.00;99.90;;;;;;4987337;28;20061;-75
2021/01/03 01:30:56;;;;;;;12.52;7.38;;;3.90;99.90;;;;;;4988942;28;20018;-75
2021/01/03 01:33:22;;;;;;;11.38;6.80;;;3.90;99.90;;;;;;4986809;28;20081;-75
2021/01/03 01:35:47;;;;;;;14.68;7.78;;;4.00;99.90;;;;;;4987925;28;20031;-75
2021/01/03 01:38:13;;;;;;;14.73;8.20;;;3.90;99.90;;;;;;4988729;28;20026;-75
2021/01/03 01:40:40;;;;;;;13.68;8.13;;;3.90;99.90;;;;;;4987061;28;20034;-75
2021/01/03 01:43:09;;;;;;;17.13;8.63;;;4.00;99.90;;;;;;4986904;28;20110;-75
2021/01/03 01:45:39;;;;;;;16.63;9.10;;;3.90;99.90;;;;;;4986526;28;20027;-75
2021/01/03 01:48:18;;;;;;;15.70;8.38;;;3.90;99.90;;;;;;4986941;28;20014;-75
2021/01/03 01:50:59;;;;;;;17.57;9.40;;;3.90;99.90;;;;;;4987369;28;20117;-75
2021/01/03 01:53:29;;;;;;;17.05;9.55;;;3.90;99.90;;;;;;4988424;28;20057;-75
2021/01/03 01:56:24;;;;;;;19.55;10.35;;;3.90;99.90;;;;;;4987771;28;20034;-75
2021/01/03 01:59:00;;;;;;;18.20;10.05;;;3.90;99.90;;;;;;4972627;28;20463;-76
2021/01/03 02:01:44;;;;;;;20.95;10.80;;;3.90;99.90;;;;;;5006771;28;20431;-75
2021/01/03 02:04:22;;;;;;;23.85;10.88;;;3.90;99.90;;;;;;4991758;28;20110;-75
2021/01/03 02:07:01;;;;;;;18.60;9.93;;;3.80;99.90;;;;;;4991900;28;20030;-75
2021/01/03 02:09:37;;;;;;;18.13;10.35;;;3.80;99.90;;;;;;4991781;28;20053;-75
2021/01/03 02:12:10;;;;;;;23.95;12.40;;;3.80;99.90;;;;;;4991907;28;20023;-76
2021/01/03 02:14:36;;;;;;;24.13;10.45;;;3.80;99.90;;;;;;4991186;28;20081;-75
2021/01/03 02:17:02;;;;;;;23.55;12.15;;;3.80;99.90;;;;;;4992041;28;20018;-75
2021/01/03 02:19:31;;;;;;;21.75;12.10;;;3.80;99.90;;;;;;4991734;28;20508;-76
2021/01/03 02:22:10;;;;;;;21.75;12.00;;;3.70;99.90;;;;;;4991755;28;20019;-75
2021/01/03 02:24:48;;;;;;;24.73;12.75;;;3.80;99.90;;;;;;4989552;28;20022;-75
2021/01/03 02:27:38;;;;;;;22.40;11.65;;;3.80;99.90;;;;;;4991516;28;20018;-75
2021/01/03 02:30:06;;;;;;;24.00;11.80;;;3.70;99.90;;;;;;4991559;28;20018;-76
2021/01/03 02:32:34;;;;;;;23.63;11.93;;;3.70;99.90;;;;;;4991547;28;20026;-75
2021/01/03 02:35:03;;;;;;;23.23;13.13;;;3.80;99.90;;;;;;4989174;28;20084;-75
2021/01/03 02:37:36;;;;;;;20.42;12.27;;;3.70;99.90;;;;;;4990002;28;20038;-75
2021/01/03 02:40:12;;;;;;;25.23;12.95;;;3.80;99.90;;;;;;4991236;28;20040;-75
2021/01/03 02:42:40;;;;;;;27.52;13.63;;;3.80;99.90;;;;;;4978861;28;20030;-76
2021/01/03 02:45:17;;;;;;;24.02;13.02;;;3.80;99.90;;;;;;4991019;28;20022;-75
2021/01/03 02:47:42;;;;;;;26.05;12.90;;;3.80;99.90;;;;;;4989974;28;20028;-76
2021/01/03 02:50:15;;;;;;;20.27;12.02;;;3.80;99.90;;;;;;4990051;28;20018;-75
2021/01/03 02:52:42;;;;;;;22.77;12.02;;;3.70;99.90;;;;;;4991090;28;20440;-76
2021/01/03 02:55:09;;;;;;;23.13;12.63;;;3.70;99.90;;;;;;5005085;28;20029;-76
2021/01/03 02:57:35;;;;;;;25.13;12.38;;;3.70;99.90;;;;;;4991494;28;20069;-75
2021/01/03 03:00:01;;;;;;;24.17;13.27;;;3.70;99.90;;;;;;4990985;28;20034;-75
2021/01/03 03:02:27;;;;;;;25.77;13.48;;;3.70;99.90;;;;;;4991036;28;20027;-76
2021/01/03 03:04:52;;;;;;;26.17;12.82;;;3.70;99.90;;;;;;4989209;28;20026;-75
2021/01/03 03:07:18;;;;;;;25.65;13.70;;;3.70;99.90;;;;;;4990831;28;20035;-75
2021/01/03 03:09:44;;;;;;;24.30;12.90;;;3.70;99.90;;;;;;4990607;28;20072;-75
2021/01/03 03:12:09;;;;;;;23.13;12.25;;;3.70;99.90;;;;;;4988881;28;20113;-75
2021/01/03 03:14:35;;;;;;;25.05;12.43;;;3.70;99.90;;;;;;4988924;28;20109;-75
2021/01/03 03:17:04;;;;;;;22.70;11.88;;;3.70;99.90;;;;;;4990828;28;20029;-75
2021/01/03 03:19:29;;;;;;;23.33;12.80;;;3.70;99.90;;;;;;4990830;28;20044;-75
2021/01/03 03:21:55;;;;;;;22.60;12.52;;;3.70;99.90;;;;;;4990719;28;20030;-75
2021/01/03 03:24:21;;;;;;;24.50;13.35;;;3.70;99.90;;;;;;4990398;28;20026;-75
2021/01/03 03:26:55;;;;;;;25.50;13.25;;;3.70;99.90;;;;;;4990447;28;20498;-75
2021/01/03 03:29:22;;;;;;;23.17;12.30;;;3.70;99.90;;;;;;4989054;28;20392;-75
2021/01/03 03:31:48;;;;;;;26.50;12.90;;;3.70;99.90;;;;;;4989131;28;20031;-75
2021/01/03 03:34:14;;;;;;;25.30;12.85;;;3.60;99.90;;;;;;4988674;28;20037;-75
2021/01/03 03:36:40;;;;;;;28.83;13.52;;;3.60;99.90;;;;;;4990051;28;20022;-75
2021/01/03 03:39:05;;;;;;;25.30;13.32;;;3.60;99.90;;;;;;4988990;28;20126;-75
2021/01/03 03:41:31;;;;;;;23.35;12.70;;;3.60;99.90;;;;;;5004823;28;20575;-75
2021/01/03 03:43:56;;;;;;;24.63;13.10;;;3.60;99.90;;;;;;4990378;28;20081;-75
2021/01/03 03:46:22;;;;;;;23.40;12.68;;;3.60;99.90;;;;;;4989280;28;20048;-75
2021/01/03 03:48:47;;;;;;;28.95;13.65;;;3.60;99.90;;;;;;4990116;28;20111;-75
2021/01/03 03:51:20;;;;;;;26.95;12.85;;;3.60;99.90;;;;;;4989979;28;20030;-75
2021/01/03 03:53:46;;;;;;;27.05;13.65;;;3.60;99.90;;;;;;4988276;28;20029;-75
2021/01/03 03:56:13;;;;;;;26.40;13.10;;;3.60;99.90;;;;;;4988418;28;20023;-76
2021/01/03 03:58:39;;;;;;;25.08;12.80;;;3.60;99.90;;;;;;4989957;28;20026;-76
2021/01/03 04:01:06;;;;;;;26.65;13.30;;;3.60;99.90;;;;;;4990044;28;20057;-74
2021/01/03 04:03:32;;;;;;;23.92;12.60;;;3.60;99.90;;;;;;4988657;28;20088;-74
2021/01/03 04:05:58;;;;;;;29.08;12.95;;;3.60;99.90;;;;;;5004353;28;20026;-74
2021/01/03 04:08:23;;;;;;;26.38;12.80;;;3.60;99.90;;;;;;4988509;28;20439;-74
2021/01/03 04:10:49;;;;;;;25.80;13.93;;;3.50;99.90;;;;;;4987534;28;20023;-74
2021/01/03 04:13:15;;;;;;;28.98;14.10;;;3.50;99.90;;;;;;4986042;28;20038;-74
2021/01/03 04:15:40;;;;;;;26.83;13.20;;;3.60;99.90;;;;;;4977361;28;20034;-74
2021/01/03 04:18:06;;;;;;;30.50;15.25;;;3.60;99.90;;;;;;4988701;28;20132;-74
2021/01/03 04:20:32;;;;;;;29.30;14.00;;;3.50;99.90;;;;;;4988594;28;20395;-75
2021/01/03 04:22:58;;;;;;;32.88;14.00;;;3.50;99.90;;;;;;4989767;28;20029;-75
2021/01/03 04:25:24;;;;;;;29.95;15.05;;;3.50;99.90;;;;;;4988739;28;20026;-74
2021/01/03 04:27:52;;;;;;;29.80;14.10;;;3.50;99.90;;;;;;4989277;28;20411;-74
2021/01/03 04:30:19;;;;;;;30.15;14.52;;;3.50;99.90;;;;;;4989261;28;20018;-75
2021/01/03 04:32:45;;;;;;;28.95;14.27;;;3.50;99.90;;;;;;4972026;28;20061;-75
2021/01/03 04:35:11;;;;;;;30.02;15.60;;;3.50;99.90;;;;;;4988619;28;20058;-75
2021/01/03 04:37:37;;;;;;;29.95;14.30;;;3.50;99.90;;;;;;4989165;28;20037;-74
2021/01/03 04:40:04;;;;;;;32.50;14.85;;;3.50;99.90;;;;;;4987842;28;20049;-75
2021/01/03 04:42:34;;;;;;;28.95;14.20;;;3.50;99.90;;;;;;4987486;28;20092;-75
2021/01/03 04:45:12;;;;;;;31.85;16.52;;;3.40;99.90;;;;;;4987383;28;20029;-75
2021/01/03 04:47:59;;;;;;;26.58;13.35;;;3.50;99.90;;;;;;4989054;28;20042;-75
2021/01/03 04:50:49;;;;;;;28.48;14.35;;;3.50;99.90;;;;;;4965513;28;20407;-75
2021/01/03 04:53:32;;;;;;;29.13;14.05;;;3.40;99.90;;;;;;5004010;28;20030;-74
2021/01/03 04:56:15;;;;;;;30.08;15.35;;;3.40;99.90;;;;;;4986814;28;20034;-74
2021/01/03 04:59:05;;;;;;;29.63;15.38;;;3.40;99.90;;;;;;4988815;28;20034;-74
2021/01/03 05:02:05;;;;;;;23.95;11.43;;;3.40;99.90;;;;;;5003807;28;20462;-75
2021/01/03 05:04:47;;;;;;;31.67;14.63;;;3.40;99.90;;;;;;4988691;28;20034;-75
2021/01/03 05:07:24;;;;;;;28.40;14.20;;;3.40;99.90;;;;;;4988758;28;20030;-75
2021/01/03 05:09:52;;;;;;;31.45;15.07;;;3.30;99.90;;;;;;4989126;28;20026;-75
2021/01/03 05:12:27;;;;;;;30.95;14.10;;;3.40;99.90;;;;;;4987605;28;20026;-75
2021/01/03 05:15:00;;;;;;;28.63;14.68;;;3.40;99.90;;;;;;4988815;28;20483;-75
2021/01/03 05:17:25;;;;;;;32.60;15.15;;;3.30;99.90;;;;;;4985257;28;20377;-75
2021/01/03 05:19:52;;;;;;;33.25;14.88;;;3.40;99.90;;;;;;4988693;28;20037;-75
2021/01/03 05:22:30;;;;;;;28.85;15.45;;;3.40;99.90;;;;;;4987888;28;20030;-75
2021/01/03 05:24:58;;;;;;;29.17;15.23;;;3.30;99.90;;;;;;4987926;28;20262;-75
2021/01/03 05:27:26;;;;;;;28.17;13.93;;;3.30;99.90;;;;;;4984152;28;20035;-75
2021/01/03 05:29:52;;;;;;;33.22;15.15;;;3.30;99.90;;;;;;4988480;28;20112;-75
2021/01/03 05:32:30;;;;;;;29.40;13.60;;;3.30;99.90;;;;;;4986769;28;20113;-75
2021/01/03 05:34:56;;;;;;;29.88;14.55;;;3.30;99.90;;;;;;4988953;28;20395;-76
2021/01/03 05:37:32;;;;;;;29.08;13.45;;;3.30;99.90;;;;;;4991001;28;20077;-75
2021/01/03 05:39:58;;;;;;;28.38;14.43;;;3.30;99.90;;;;;;4992170;28;20030;-75
2021/01/03 05:42:31;;;;;;;28.98;14.02;;;3.30;99.90;;;;;;4991392;28;20204;-75
2021/01/03 05:44:57;;;;;;;30.17;14.40;;;3.20;99.90;;;;;;4989609;28;20022;-75
2021/01/03 05:47:29;;;;;;;25.63;13.77;;;3.20;99.90;;;;;;4991793;28;20024;-75
2021/01/03 05:50:34;;;;;;;31.05;14.00;;;3.30;99.90;;;;;;4988218;28;20074;-75
2021/01/03 05:53:17;;;;;;;29.80;13.25;;;3.30;99.90;;;;;;4990679;28;20033;-75
2021/01/03 05:56:11;;;;;;;26.65;14.18;;;3.30;99.90;;;;;;4990162;28;20442;-75
2021/01/03 05:58:40;;;;;;;28.60;14.40;;;3.30;99.90;;;;;;4989592;28;20037;-75
2021/01/03 06:01:35;;;;;;;25.75;14.30;;;3.30;99.90;;;;;;4991255;28;20570;-75
2021/01/03 06:04:04;;;;;;;27.33;12.93;;;3.30;99.90;;;;;;4990431;28;20034;-75
2021/01/03 06:06:42;;;;;;;27.67;13.48;;;3.30;99.90;;;;;;4987522;28;20523;-75
2021/01/03 06:09:09;;;;;;;26.08;12.95;;;3.20;99.90;;;;;;4989449;28;20376;-75
2021/01/03 06:11:35;;;;;;;27.00;13.90;;;3.30;99.90;;;;;;4989402;28;20030;-76
2021/01/03 06:14:00;;;;;;;25.50;13.65;;;3.20;99.90;;;;;;4989816;28;20290;-75
2021/01/03 06:16:29;;;;;;;25.45;13.48;;;3.20;99.90;;;;;;4990750;28;20029;-75
2021/01/03 06:19:21;;;;;;;28.38;13.38;;;3.20;99.90;;;;;;4991694;28;20559;-75
2021/01/03 06:21:46;;;;;;;26.52;12.95;;;3.30;99.90;;;;;;4990267;28;20456;-75
2021/01/03 06:24:24;;;;;;;27.67;13.75;;;3.30;99.90;;;;;;4992027;28;20101;-75
2021/01/03 06:26:56;;;;;;;19.92;11.43;;;3.30;99.90;;;;;;4991710;28;20085;-75
2021/01/03 06:29:38;;;;;;;28.20;13.73;;;3.30;99.90;;;;;;4991907;28;20079;-76
2021/01/03 06:32:28;;;;;;;25.80;13.05;;;3.30;99.90;;;;;;4990254;28;20395;-75
2021/01/03 06:35:04;;;;;;;26.45;13.70;;;3.40;99.90;;;;;;4990900;28;20030;-75
2021/01/03 06:37:54;;;;;;;26.55;12.98;;;3.30;99.90;;;;;;4991405;28;20219;-75
2021/01/03 06:40:36;;;;;;;26.40;12.75;;;3.30;99.90;;;;;;4989907;28;20156;-76
2021/01/03 06:43:25;;;;;;;25.88;13.45;;;3.40;99.90;;;;;;4990329;28;20550;-75
2021/01/03 06:46:01;;;;;;;29.85;13.63;;;3.40;99.90;;;;;;4990429;28;20033;-75
2021/01/03 06:48:49;;;;;;;28.15;12.65;;;3.40;99.90;;;;;;4989871;28;20032;-75
2021/01/03 06:51:42;;;;;;;26.73;13.02;;;3.40;99.90;;;;;;4991192;28;20519;-75
2021/01/03 06:54:25;;;;;;;28.25;14.52;;;3.30;99.90;;;;;;4992064;28;20750;-75
2021/01/03 06:57:29;;;;;;;26.48;13.15;;;3.40;99.90;;;;;;4988524;28;20383;-75
2021/01/03 07:00:18;;;;;;;34.20;14.93;;;3.40;99.90;;;;;;4989199;28;20022;-75
2021/01/03 07:02:58;;;;;;;23.92;12.55;;;3.40;99.90;;;;;;4990192;28;20408;-75
2021/01/03 07:05:24;;;;;;;27.42;13.95;;;3.40;99.90;;;;;;4989758;28;20065;-75
2021/01/03 07:08:09;;;;;;;23.90;12.98;;;3.40;99.90;;;;;;4990198;28;20030;-75
2021/01/03 07:10:53;;;;;;;27.58;14.18;;;3.40;99.90;;;;;;4988863;28;20019;-75
2021/01/03 07:13:36;;;;;;;28.75;14.00;;;3.40;99.90;;;;;;4987660;28;20126;-74
2021/01/03 07:16:03;;;;;;;27.92;13.68;;;3.40;99.90;;;;;;4988322;28;20022;-75
2021/01/03 07:18:40;;;;;;;28.90;15.30;;;3.40;99.90;;;;;;4989120;28;20453;-74
2021/01/03 07:21:06;;;;;;;26.55;13.70;;;3.40;99.90;;;;;;4989678;28;20088;-74
2021/01/03 07:23:37;;;;;;;27.00;14.55;;;3.40;99.90;;;;;;4989873;28;20373;-75
2021/01/03 07:26:24;;;;;;;30.63;14.23;;;3.40;99.90;;;;;;4988172;28;20183;-75
2021/01/03 07:28:55;;;;;;;31.48;14.77;;;3.40;99.90;;;;;;4989953;28;20090;-75
2021/01/03 07:31:34;;;;;;;31.52;15.38;;;3.40;99.90;;;;;;4985810;28;20030;-75
2021/01/03 07:34:04;;;;;;;31.38;15.80;;;3.40;99.90;;;;;;4989996;28;20045;-75
2021/01/03 07:36:51;;;;;;;38.85;16.95;;;3.40;99.90;;;;;;4988345;28;20416;-75
2021/01/03 07:39:25;;;;;;;37.47;18.15;;;3.40;99.90;;;;;;4988964;28;20038;-76
2021/01/03 07:42:11;;;;;;;39.45;17.52;;;3.30;99.90;;;;;;4984741;28;20134;-76
2021/01/03 07:44:37;;;;;;;41.65;17.48;;;3.40;99.90;;;;;;4988935;28;20102;-76
2021/01/03 07:47:04;;;;;;;38.08;17.45;;;3.30;99.90;;;;;;4989599;28;20118;-76
2021/01/03 07:49:32;;;;;;;43.97;18.50;;;3.30;99.90;;;;;;4988036;28;20030;-76
2021/01/03 07:52:00;;;;;;;47.55;20.90;;;3.30;99.90;;;;;;4986184;28;20027;-76
2021/01/03 07:54:27;;;;;;;47.97;19.33;;;3.30;99.90;;;;;;4989883;28;20480;-76
2021/01/03 07:56:53;;;;;;;47.65;19.35;;;3.40;99.90;;;;;;4994417;28;20023;-76
2021/01/03 07:59:18;;;;;;;48.22;20.35;;;3.30;99.90;;;;;;4997165;28;20037;-76
2021/01/03 08:01:50;;;;;;;49.45;21.23;;;3.40;99.90;;;;;;4994272;28;20029;-76
2021/01/03 08:04:25;;;;;;;57.00;22.17;;;3.30;99.90;;;;;;4993792;28;20030;-76
2021/01/03 08:06:50;;;;;;;63.67;23.33;;;3.40;99.90;;;;;;4996556;28;20126;-76
2021/01/03 08:09:24;;;;;;;60.30;22.90;;;3.40;99.90;;;;;;5012279;28;20116;-75
2021/01/03 08:11:53;;;;;;;57.60;22.63;;;3.30;99.90;;;;;;4991305;28;20205;-76
2021/01/03 08:14:27;;;;;;;57.25;24.20;;;3.30;99.90;;;;;;4996008;28;20030;-76
2021/01/03 08:17:01;;;;;;;66.88;25.77;;;3.40;99.90;;;;;;4998103;28;20030;-76
2021/01/03 08:19:26;;;;;;;65.30;23.88;;;3.30;99.90;;;;;;4995133;28;20032;-77
2021/01/03 08:21:55;;;;;;;66.70;25.52;;;3.30;99.90;;;;;;4996502;28;20117;-76
2021/01/03 08:24:21;;;;;;;60.22;23.58;;;3.30;99.90;;;;;;4997119;28;20050;-75
2021/01/03 08:26:50;;;;;;;59.00;22.52;;;3.40;99.90;;;;;;4997143;28;20040;-75
2021/01/03 08:29:35;;;;;;;57.63;22.60;;;3.40;99.90;;;;;;4995903;28;20029;-76
2021/01/03 08:32:08;;;;;;;67.85;24.98;;;3.50;99.90;;;;;;4997706;28;20022;-76
2021/01/03 08:34:37;;;;;;;70.88;24.40;;;3.40;99.90;;;;;;4995102;28;20104;-75
2021/01/03 08:37:20;;;;;;;62.38;24.10;;;3.40;99.90;;;;;;4995311;28;20018;-75
2021/01/03 08:39:46;;;;;;;65.53;23.95;;;3.40;99.90;;;;;;4994863;28;20117;-76
2021/01/03 08:42:25;;;;;;;65.68;23.50;;;3.40;99.90;;;;;;4995155;28;20261;-75
2021/01/03 08:44:55;;;;;;;51.95;22.73;;;3.40;99.90;;;;;;4995550;28;20515;-76
2021/01/03 08:47:34;;;;;;;63.53;24.90;;;3.40;99.90;;;;;;4995757;28;20033;-76
2021/01/03 08:50:09;;;;;;;59.97;21.77;;;3.40;99.90;;;;;;5010050;28;20018;-76
2021/01/03 08:52:35;;;;;;;59.38;22.95;;;3.40;99.90;;;;;;5011860;28;20121;-76
2021/01/03 08:55:20;;;;;;;60.83;23.95;;;3.40;99.90;;;;;;4994196;28;20109;-76
2021/01/03 08:57:54;;;;;;;60.25;23.55;;;3.40;99.90;;;;;;4994625;28;20173;-75
2021/01/03 09:00:21;;;;;;;53.25;21.60;;;3.30;99.90;;;;;;4993303;28;20034;-75
2021/01/03 09:02:52;;;;;;;61.35;21.17;;;3.30;99.90;;;;;;4989324;28;20393;-75
2021/01/03 09:05:19;;;;;;;57.97;23.50;;;3.30;99.90;;;;;;4993304;28;20027;-75
2021/01/03 09:07:45;;;;;;;58.40;22.20;;;3.20;99.90;;;;;;4994685;28;20444;-73
2021/01/03 09:10:24;;;;;;;57.72;22.30;;;3.20;99.90;;;;;;5012214;28;20054;-75
2021/01/03 09:12:49;;;;;;;58.22;21.73;;;3.20;99.90;;;;;;4995583;28;20026;-75
2021/01/03 09:15:23;;;;;;;57.50;20.42;;;3.20;99.90;;;;;;4996597;28;20606;-75
2021/01/03 09:18:21;;;;;;;57.75;22.80;;;3.20;99.90;;;;;;4997706;28;20444;-75
2021/01/03 09:20:47;;;;;;;45.30;19.20;;;3.20;99.90;;;;;;5013829;28;20019;-76
2021/01/03 09:23:21;;;;;;;51.38;20.60;;;3.20;99.90;;;;;;4992328;28;20041;-75
2021/01/03 09:25:53;;;;;;;46.75;18.23;;;3.20;99.90;;;;;;4992009;28;20019;-75
2021/01/03 09:28:21;;;;;;;47.25;19.20;;;3.10;99.90;;;;;;4992693;28;20472;-76
2021/01/03 09:30:47;;;;;;;55.88;19.40;;;3.10;99.90;;;;;;4990527;28;20076;-78
2021/01/03 09:33:26;;;;;;;40.78;18.15;;;3.10;99.90;;;;;;4991091;28;20022;-77
2021/01/03 09:36:06;;;;;;;46.28;18.98;;;3.10;99.90;;;;;;4991660;28;20105;-76
2021/01/03 09:38:34;;;;;;;47.03;18.40;;;3.10;99.90;;;;;;5007602;28;20027;-76
2021/01/03 09:41:18;;;;;;;38.90;16.75;;;3.10;99.90;;;;;;5007299;28;20471;-76
2021/01/03 09:44:12;;;;;;;42.47;17.40;;;3.10;99.90;;;;;;5006445;28;20395;-77
2021/01/03 09:46:50;;;;;;;39.78;17.52;;;3.10;99.90;;;;;;5006763;28;20464;-76
2021/01/03 09:49:27;;;;;;;39.60;15.73;;;3.10;99.90;;;;;;4990998;28;20030;-77
2021/01/03 09:52:17;;;;;;;40.63;16.90;;;3.10;99.90;;;;;;4991766;28;20038;-75
2021/01/03 09:54:52;;;;;;;42.35;17.67;;;3.10;99.90;;;;;;4980287;28;20110;-75
2021/01/03 09:57:27;;;;;;;36.63;15.68;;;3.10;99.90;;;;;;4989676;28;20084;-75
2021/01/03 09:59:57;;;;;;;42.15;16.17;;;3.20;99.90;;;;;;4992266;28;20049;-75
2021/01/03 10:02:26;;;;;;;37.25;16.83;;;3.10;99.90;;;;;;4992206;28;20061;-75
2021/01/03 10:04:52;;;;;;;37.25;15.18;;;3.10;99.90;;;;;;5006333;28;20026;-75
2021/01/03 10:07:22;;;;;;;34.17;14.68;;;3.10;99.90;;;;;;4991967;28;20042;-75
2021/01/03 10:09:59;;;;;;;38.35;14.75;;;3.10;99.90;;;;;;4992257;28;20018;-75
2021/01/03 10:12:30;;;;;;;32.78;14.55;;;3.00;99.90;;;;;;4991392;28;20105;-76
2021/01/03 10:15:02;;;;;;;;;;;3.10;99.90;;;;;;4990305;28;20030;-75
2021/01/03 10:17:27;;;;;;;35.67;13.27;;;3.10;99.90;;;;;;4991464;28;19996;-75
2021/01/03 10:19:54;;;;;;;32.47;13.82;;;3.10;99.90;;;;;;4973214;28;20397;-75
2021/01/03 10:22:41;;;;;;;38.95;15.38;;;3.10;99.90;;;;;;4988938;28;20121;-75
2021/01/03 10:25:14;;;;;;;36.60;14.80;;;3.00;99.90;;;;;;4988607;28;20026;-75
2021/01/03 10:27:40;;;;;;;36.30;13.55;;;3.10;99.90;;;;;;4990245;28;20092;-75
2021/01/03 10:30:08;;;;;;;34.58;14.95;;;3.10;99.90;;;;;;4989007;28;20030;-75
2021/01/03 10:32:35;;;;;;;33.90;15.55;;;3.10;99.90;;;;;;4988712;28;20034;-75
2021/01/03 10:35:03;;;;;;;40.17;15.55;;;3.10;99.90;;;;;;4988702;28;20088;-75
2021/01/03 10:37:28;;;;;;;30.50;13.43;;;3.10;99.90;;;;;;4989304;28;20529;-75
2021/01/03 10:39:54;;;;;;;34.90;15.27;;;3.10;99.90;;;;;;4990324;28;20023;-75
2021/01/03 10:42:19;;;;;;;36.50;14.88;;;3.00;99.90;;;;;;4989814;28;20392;-75
2021/01/03 10:44:45;;;;;;;30.58;14.23;;;3.00;99.90;;;;;;4988217;28;20202;-75
2021/01/03 10:47:11;;;;;;;39.38;16.73;;;3.00;99.90;;;;;;4990619;28;20538;-75
2021/01/03 10:49:37;;;;;;;33.80;14.27;;;3.00;99.90;;;;;;4989787;28;20155;-75
2021/01/03 10:52:04;;;;;;;32.83;14.95;;;3.00;99.90;;;;;;4990043;28;20028;-76
2021/01/03 10:54:30;;;;;;;40.80;15.95;;;3.00;99.90;;;;;;4988410;28;20036;-75
2021/01/03 10:56:57;;;;;;;37.90;14.95;;;3.00;99.90;;;;;;4989785;28;20026;-75
2021/01/03 10:59:24;;;;;;;33.58;14.98;;;3.00;99.90;;;;;;4989422;28;20028;-76
2021/01/03 11:01:50;;;;;;;33.92;16.05;;;3.00;99.90;;;;;;5004835;28;20030;-76
2021/01/03 11:04:18;;;;;;;32.47;15.55;;;3.00;99.90;;;;;;4989971;28;20029;-76
2021/01/03 11:06:49;;;;;;;31.40;14.88;;;3.00;99.90;;;;;;4989224;28;20026;-75
2021/01/03 11:09:21;;;;;;;35.67;15.88;;;3.00;99.90;;;;;;4989132;28;20058;-75
2021/01/03 11:11:47;;;;;;;28.85;15.02;;;3.00;99.90;;;;;;4988016;28;20471;-75
2021/01/03 11:14:14;;;;;;;31.83;14.43;;;3.00;99.90;;;;;;4988595;28;20069;-75
2021/01/03 11:16:41;;;;;;;29.02;13.75;;;2.90;99.90;;;;;;4989611;28;20093;-75
2021/01/03 11:19:10;;;;;;;29.05;14.23;;;2.90;99.90;;;;;;4990073;28;20029;-75
2021/01/03 11:21:35;;;;;;;29.88;13.88;;;3.00;99.90;;;;;;4979856;28;20093;-75
2021/01/03 11:24:02;;;;;;;29.00;14.30;;;2.90;99.90;;;;;;4990005;28;20030;-75
2021/01/03 11:26:33;;;;;;;30.05;13.90;;;2.90;99.90;;;;;;4989238;28;20034;-75
2021/01/03 11:28:59;;;;;;;;;;;2.80;99.90;;;;;;4988510;28;20456;-75
2021/01/03 11:31:43;;;;;;;31.90;14.35;;;2.90;99.90;;;;;;4989451;28;19909;-75
2021/01/03 11:34:13;;;;;;;26.75;13.57;;;2.90;99.90;;;;;;4989638;28;20034;-75
2021/01/03 11:36:45;;;;;;;32.05;14.63;;;2.80;99.90;;;;;;4984005;28;20373;-75
2021/01/03 11:39:10;;;;;;;31.95;13.65;;;2.80;99.90;;;;;;4989800;28;20495;-75
2021/01/03 11:41:37;;;;;;;29.05;13.05;;;2.80;99.90;;;;;;4989433;28;20032;-75
2021/01/03 11:44:03;;;;;;;33.13;15.57;;;2.80;99.90;;;;;;4986627;28;20022;-75
2021/01/03 11:46:30;;;;;;;34.40;15.00;;;2.80;99.90;;;;;;4987500;28;20030;-75
2021/01/03 11:48:56;;;;;;;30.33;14.02;;;2.80;99.90;;;;;;4986138;28;20080;-75
2021/01/03 11:51:23;;;;;;;26.83;13.48;;;2.70;99.90;;;;;;4984818;28;20097;-75
2021/01/03 11:53:48;;;;;;;28.63;13.43;;;2.60;99.90;;;;;;4988241;28;20045;-74
2021/01/03 11:56:18;;;;;;;29.80;13.18;;;2.70;99.90;;;;;;4986771;28;20061;-74
2021/01/03 11:58:44;;;;;;;29.43;13.93;;;2.60;99.90;;;;;;4989350;28;20030;-74
2021/01/03 12:01:09;;;;;;;30.98;15.35;;;2.50;99.90;;;;;;4991088;28;20315;-75
2021/01/03 12:03:35;;;;;;;32.83;15.38;;;2.50;99.90;;;;;;4986792;28;20034;-74
2021/01/03 12:06:00;;;;;;;30.08;15.98;;;2.50;99.90;;;;;;4987511;28;20033;-74
2021/01/03 12:08:25;;;;;;;33.60;15.10;;;2.50;99.90;;;;;;4988822;28;20105;-74
2021/01/03 12:10:51;;;;;;;25.63;13.68;;;2.50;99.90;;;;;;4983150;28;20022;-76
2021/01/03 12:13:16;;;;;;;30.77;14.05;;;2.50;99.90;;;;;;4988886;28;20725;-75
2021/01/03 12:15:42;;;;;;;27.92;14.75;;;2.50;99.90;;;;;;4987022;28;20019;-75
2021/01/03 12:18:08;;;;;;;29.75;14.55;;;2.40;99.90;;;;;;4986868;28;20599;-75
2021/01/03 12:20:33;;;;;;;29.65;13.85;;;2.50;99.90;;;;;;4985949;28;20456;-75
2021/01/03 12:22:59;;;;;;;32.80;14.95;;;2.40;99.90;;;;;;4983397;28;20041;-75
2021/01/03 12:25:25;;;;;;;32.10;14.38;;;2.40;99.90;;;;;;4987317;28;20391;-75
2021/01/03 12:27:50;;;;;;;31.73;14.30;;;2.40;99.90;;;;;;4987697;28;20041;-75
2021/01/03 12:30:16;;;;;;;32.25;15.10;;;2.40;99.90;;;;;;4988002;28;20022;-75
2021/01/03 12:32:42;;;;;;;28.63;14.07;;;2.40;99.90;;;;;;4990272;28;20033;-75
2021/01/03 12:35:09;;;;;;;32.08;14.40;;;2.40;99.90;;;;;;4987923;28;20112;-75
2021/01/03 12:37:37;;;;;;;29.98;14.27;;;2.50;99.90;;;;;;4986640;28;20034;-75
2021/01/03 12:40:06;;;;;;;32.08;14.13;;;2.50;99.90;;;;;;4986847;28;20058;-75
2021/01/03 12:42:31;;;;;;;29.92;13.15;;;2.50;99.90;;;;;;4981037;28;20037;-75
2021/01/03 12:44:57;;;;;;;28.30;13.27;;;2.60;99.90;;;;;;4990526;28;20030;-75
2021/01/03 12:47:22;;;;;;;29.23;13.38;;;2.50;99.90;;;;;;4989018;28;20038;-75
2021/01/03 12:49:48;;;;;;;28.95;13.80;;;2.50;99.90;;;;;;4989333;28;20042;-75
2021/01/03 12:52:13;;;;;;;28.85;13.57;;;2.50;99.90;;;;;;4989667;28;20065;-75
2021/01/03 12:54:39;;;;;;;28.65;14.45;;;2.50;99.90;;;;;;4988533;28;20018;-75
2021/01/03 12:57:04;;;;;;;24.45;13.07;;;2.50;99.90;;;;;;4990569;28;20084;-75
2021/01/03 12:59:30;;;;;;;26.27;13.15;;;2.40;99.90;;;;;;4986834;28;20410;-75